| time (UTC) | temp F | wind direction | speed knots | gust knots | rain 1hr in | rain 24hr in | rain mn in | humidity % | barometer mb |
| 20260507231438 | 55 | 264 | 3.5 | 5.2 | 0.00 | 0.00 | 0.00 | 46 | 1009.3 |
| 20260507230935 | 55 | 289 | 7.0 | 7.8 | 0.00 | 0.00 | 0.00 | 46 | 1009.3 |
| 20260507230432 | 55 | 254 | 5.2 | 7.8 | 0.00 | 0.00 | 0.00 | 48 | 1009.3 |
| 20260507225932 | 55 | 268 | 6.1 | 7.0 | 0.00 | 0.00 | 0.00 | 46 | 1009.4 |
| 20260507225428 | 55 | 246 | 5.2 | 7.8 | 0.00 | 0.00 | 0.00 | 45 | 1009.3 |
| 20260507224925 | 56 | 300 | 8.7 | 11.3 | 0.00 | 0.00 | 0.00 | 44 | 1009.2 |
| 20260507224420 | 57 | 275 | 5.2 | 6.1 | 0.00 | 0.00 | 0.00 | 45 | 1009.1 |
| 20260507223918 | 57 | 330 | 3.5 | 3.5 | 0.00 | 0.00 | 0.00 | 45 | 1009.1 |
| 20260507223413 | 57 | 296 | 3.5 | 3.5 | 0.00 | 0.00 | 0.00 | 45 | 1009.0 |
| 20260507222911 | 57 | 283 | 5.2 | 6.1 | 0.00 | 0.00 | 0.00 | 44 | 1008.9 |
| 20260507222408 | 56 | 269 | 3.5 | 3.5 | 0.00 | 0.00 | 0.00 | 46 | 1008.8 |
| 20260507221904 | 55 | 303 | 2.6 | 2.6 | 0.00 | 0.00 | 0.00 | 48 | 1008.9 |
| 20260507221401 | 56 | 299 | 3.5 | 6.1 | 0.00 | 0.00 | 0.00 | 46 | 1009.0 |
| 20260507220856 | 56 | 272 | 5.2 | 7.0 | 0.00 | 0.00 | 0.00 | 47 | 1008.8 |
| 20260507220355 | 57 | 293 | 5.2 | 6.1 | 0.00 | 0.00 | 0.00 | 46 | 1008.8 |
| 20260507215851 | 59 | 312 | 5.2 | 7.8 | 0.00 | 0.00 | 0.00 | 44 | 1008.7 |
| 20260507215348 | 58 | 266 | 3.5 | 5.2 | 0.00 | 0.00 | 0.00 | 45 | 1008.6 |
| 20260507214845 | 58 | 232 | 7.0 | 9.6 | 0.00 | 0.00 | 0.00 | 44 | 1008.8 |
| 20260507214343 | 57 | 37 | 5.2 | 7.0 | 0.00 | 0.00 | 0.00 | 46 | 1008.6 |
| 20260507213844 | 59 | 290 | 6.1 | 7.8 | 0.00 | 0.00 | 0.00 | 42 | 1008.5 |
| 20260507213341 | 59 | 281 | 3.5 | 3.5 | 0.00 | 0.00 | 0.00 | 42 | 1008.4 |
| 20260507212837 | 59 | 107 | 7.0 | 9.6 | 0.00 | 0.00 | 0.00 | 43 | 1008.5 |
| 20260507212333 | 57 | 282 | 3.5 | 3.5 | 0.00 | 0.00 | 0.00 | 43 | 1008.7 |
| 20260507211830 | 57 | 254 | 7.0 | 8.7 | 0.00 | 0.00 | 0.00 | 44 | 1008.7 |
| 20260507211327 | 57 | 271 | 5.2 | 7.8 | 0.00 | 0.00 | 0.00 | 45 | 1008.7 |
| 20260507210824 | 57 | 303 | 7.8 | 9.6 | 0.00 | 0.00 | 0.00 | 44 | 1008.6 |
| 20260507210321 | 57 | 330 | 3.5 | 6.1 | 0.00 | 0.00 | 0.00 | 43 | 1008.3 |
| 20260507205817 | 59 | 266 | 7.0 | 7.8 | 0.00 | 0.00 | 0.00 | 43 | 1008.4 |
| 20260507205314 | 59 | 291 | 7.8 | 8.7 | 0.00 | 0.00 | 0.00 | 45 | 1008.6 |
| 20260507204810 | 59 | 250 | 6.1 | 7.8 | 0.00 | 0.00 | 0.00 | 45 | 1008.4 |
| 20260507204308 | 60 | 275 | 7.8 | 12.2 | 0.00 | 0.00 | 0.00 | 45 | 1008.4 |
| 20260507203806 | 59 | 280 | 3.5 | 6.1 | 0.00 | 0.00 | 0.00 | 43 | 1008.3 |
| 20260507203303 | 60 | 209 | 6.1 | 7.8 | 0.00 | 0.00 | 0.00 | 45 | 1008.4 |
| 20260507202759 | 60 | 252 | 2.6 | 3.5 | 0.00 | 0.00 | 0.00 | 45 | 1008.4 |
| 20260507202255 | 58 | 248 | 3.5 | 5.2 | 0.00 | 0.00 | 0.00 | 45 | 1008.3 |
| 20260507201750 | 57 | 287 | 4.3 | 5.2 | 0.00 | 0.00 | 0.00 | 45 | 1008.5 |
| 20260507201247 | 58 | 257 | 5.2 | 7.0 | 0.00 | 0.00 | 0.00 | 44 | 1008.6 |
| 20260507200743 | 59 | 33 | 3.5 | 5.2 | 0.00 | 0.00 | 0.00 | 41 | 1008.4 |
| 20260507200239 | 57 | 288 | 3.5 | 3.5 | 0.00 | 0.00 | 0.00 | 45 | 1008.7 |
| 20260507195735 | 57 | 305 | 6.1 | 7.8 | 0.00 | 0.00 | 0.00 | 46 | 1008.7 |
| 20260507195233 | 59 | 242 | 5.2 | 6.1 | 0.00 | 0.00 | 0.00 | 46 | 1008.9 |
| 20260507194730 | 59 | 264 | 3.5 | 5.2 | 0.00 | 0.00 | 0.00 | 43 | 1008.8 |
| 20260507194226 | 58 | 271 | 7.8 | 9.6 | 0.00 | 0.00 | 0.00 | 45 | 1008.7 |
| 20260507193723 | 57 | 251 | 4.3 | 5.2 | 0.00 | 0.00 | 0.00 | 47 | 1008.7 |
| 20260507193220 | 57 | 272 | 2.6 | 3.5 | 0.00 | 0.00 | 0.00 | 47 | 1008.8 |
| 20260507192716 | 58 | 307 | 3.5 | 6.1 | 0.00 | 0.00 | 0.00 | 46 | 1008.8 |
| 20260507192213 | 59 | 251 | 6.1 | 7.0 | 0.00 | 0.00 | 0.00 | 46 | 1008.8 |
| 20260507191708 | 57 | 274 | 7.0 | 7.8 | 0.00 | 0.00 | 0.00 | 47 | 1008.8 |
| 20260507191206 | 57 | 290 | 5.2 | 6.1 | 0.00 | 0.00 | 0.00 | 47 | 1008.9 |
| 20260507190703 | 58 | 284 | 3.5 | 3.5 | 0.00 | 0.00 | 0.00 | 47 | 1008.9 |
| 20260507190201 | 57 | 283 | 7.8 | 8.7 | 0.00 | 0.00 | 0.00 | 47 | 1008.8 |
| 20260507185659 | 58 | 261 | 7.8 | 9.6 | 0.00 | 0.00 | 0.00 | 47 | 1008.9 |
| 20260507185156 | 59 | 252 | 5.2 | 7.0 | 0.00 | 0.00 | 0.00 | 49 | 1008.9 |
| 20260507184654 | 59 | 249 | 3.5 | 3.5 | 0.00 | 0.00 | 0.00 | 46 | 1008.9 |
| 20260507184151 | 57 | 335 | 3.5 | 3.5 | 0.00 | 0.00 | 0.00 | 50 | 1009.2 |
| 20260507183647 | 57 | 257 | 4.3 | 7.0 | 0.00 | 0.00 | 0.00 | 49 | 1009.3 |
| 20260507183145 | 59 | 297 | 7.0 | 8.7 | 0.00 | 0.00 | 0.00 | 45 | 1009.3 |
| 20260507182642 | 57 | 265 | 7.8 | 7.8 | 0.00 | 0.00 | 0.00 | 48 | 1009.3 |
| 20260507182137 | 57 | 296 | 4.3 | 7.0 | 0.00 | 0.00 | 0.00 | 52 | 1009.2 |
| 20260507181634 | 56 | 316 | 4.3 | 6.1 | 0.00 | 0.00 | 0.00 | 52 | 1009.3 |
| 20260507181130 | 56 | 264 | 4.3 | 5.2 | 0.00 | 0.00 | 0.00 | 52 | 1009.3 |
| 20260507180626 | 57 | 298 | 3.5 | 5.2 | 0.00 | 0.00 | 0.00 | 51 | 1009.3 |
| 20260507180124 | 57 | 274 | 3.5 | 3.5 | 0.00 | 0.00 | 0.00 | 52 | 1009.3 |
| 20260507175619 | 58 | 258 | 6.1 | 7.0 | 0.00 | 0.00 | 0.00 | 50 | 1009.3 |
| 20260507175117 | 58 | 313 | 6.1 | 7.8 | 0.00 | 0.00 | 0.00 | 53 | 1009.4 |
| 20260507174614 | 56 | 277 | 3.5 | 3.5 | 0.00 | 0.00 | 0.00 | 53 | 1009.5 |
| 20260507174112 | 56 | 300 | 2.6 | 3.5 | 0.00 | 0.00 | 0.00 | 51 | 1009.4 |
| 20260507173609 | 56 | 258 | 4.3 | 6.1 | 0.00 | 0.00 | 0.00 | 52 | 1009.5 |
| 20260507173106 | 56 | 278 | 5.2 | 6.1 | 0.00 | 0.00 | 0.00 | 49 | 1009.7 |
| 20260507172602 | 57 | 173 | 2.6 | 3.5 | 0.00 | 0.00 | 0.00 | 48 | 1009.5 |
| 20260507172059 | 58 | 296 | 2.6 | 3.5 | 0.00 | 0.00 | 0.00 | 54 | 1009.5 |
| 20260507171554 | 58 | 296 | 7.0 | 8.7 | 0.00 | 0.00 | 0.00 | 51 | 1009.7 |
| 20260507171052 | 58 | 266 | 6.1 | 9.6 | 0.00 | 0.00 | 0.00 | 52 | 1009.8 |
| 20260507170548 | 56 | 313 | 6.1 | 8.7 | 0.00 | 0.00 | 0.00 | 53 | 1009.8 |
| 20260507170045 | 57 | 244 | 6.1 | 7.0 | 0.00 | 0.00 | 0.00 | 52 | 1010.0 |
| 20260507165541 | 58 | 71 | 1.7 | 2.6 | 0.00 | 0.00 | 0.00 | 55 | 1009.8 |
| 20260507165038 | 57 | 318 | 5.2 | 6.1 | 0.00 | 0.00 | 0.00 | 55 | 1009.9 |
| 20260507164534 | 55 | 258 | 7.0 | 8.7 | 0.00 | 0.00 | 0.00 | 51 | 1009.9 |
| 20260507164031 | 55 | 298 | 2.6 | 2.6 | 0.00 | 0.00 | 0.00 | 52 | 1010.0 |
| 20260507163529 | 57 | 279 | 1.7 | 2.6 | 0.00 | 0.00 | 0.00 | 54 | 1010.0 |
| 20260507163027 | 57 | 358 | 1.7 | 1.7 | 0.00 | 0.00 | 0.00 | 54 | 1010.1 |
| 20260507162526 | 56 | 185 | 3.5 | 3.5 | 0.00 | 0.00 | 0.00 | 48 | 1010.2 |
| 20260507162024 | 57 | 277 | 2.6 | 3.5 | 0.00 | 0.00 | 0.00 | 54 | 1010.1 |
| 20260507161520 | 56 | 162 | 3.5 | 3.5 | 0.00 | 0.00 | 0.00 | 50 | 1010.1 |
| 20260507161017 | 54 | 320 | 1.7 | 1.7 | 0.00 | 0.00 | 0.00 | 51 | 1010.4 |
| 20260507160513 | 55 | 50 | 1.7 | 3.5 | 0.00 | 0.00 | 0.00 | 49 | 1010.4 |
| 20260507160009 | 56 | 324 | 4.3 | 5.2 | 0.00 | 0.00 | 0.00 | 52 | 1010.5 |
| 20260507155505 | 57 | 303 | 4.3 | 5.2 | 0.00 | 0.00 | 0.00 | 49 | 1010.4 |
| 20260507155002 | 55 | 261 | 5.2 | 6.1 | 0.00 | 0.00 | 0.00 | 56 | 1010.6 |
| 20260507154458 | 55 | 293 | 4.3 | 7.0 | 0.00 | 0.00 | 0.00 | 56 | 1010.5 |
| 20260507153955 | 54 | 337 | 2.6 | 3.5 | 0.00 | 0.00 | 0.00 | 49 | 1010.6 |
| 20260507153452 | 55 | 251 | 6.1 | 7.8 | 0.00 | 0.00 | 0.00 | 54 | 1010.6 |
| 20260507152949 | 56 | 82 | 1.7 | 2.6 | 0.00 | 0.00 | 0.00 | 50 | 1010.7 |
| 20260507152445 | 56 | 272 | 1.7 | 2.6 | 0.00 | 0.00 | 0.00 | 53 | 1010.6 |
| 20260507151941 | 55 | 261 | 4.3 | 5.2 | 0.00 | 0.00 | 0.00 | 52 | 1010.7 |
| 20260507151437 | 55 | 320 | 2.6 | 2.6 | 0.00 | 0.00 | 0.00 | 55 | 1010.9 |
| 20260507150934 | 55 | 197 | 4.3 | 5.2 | 0.00 | 0.00 | 0.00 | 55 | 1011.1 |
| 20260507150431 | 54 | 231 | 4.3 | 6.1 | 0.00 | 0.00 | 0.00 | 53 | 1010.9 |
| 20260507145928 | 54 | 274 | 4.3 | 5.2 | 0.00 | 0.00 | 0.00 | 56 | 1010.9 |
| 20260507145423 | 53 | 317 | 5.2 | 7.0 | 0.00 | 0.00 | 0.00 | 56 | 1011.1 |
| 20260507144921 | 53 | 282 | 3.5 | 5.2 | 0.00 | 0.00 | 0.00 | 62 | 1011.3 |
| 20260507144418 | 53 | 336 | 0.9 | 0.9 | 0.00 | 0.00 | 0.00 | 58 | 1011.1 |
| 20260507143915 | 54 | 273 | 3.5 | 5.2 | 0.00 | 0.00 | 0.00 | 60 | 1011.2 |
| 20260507143412 | 54 | 184 | 3.5 | 5.2 | 0.00 | 0.00 | 0.00 | 62 | 1011.2 |
| 20260507142908 | 53 | 241 | 4.3 | 5.2 | 0.00 | 0.00 | 0.00 | 60 | 1011.4 |
| 20260507142404 | 53 | 280 | 6.1 | 8.7 | 0.00 | 0.00 | 0.00 | 63 | 1011.5 |
| 20260507141902 | 53 | 278 | 1.7 | 1.7 | 0.00 | 0.00 | 0.00 | 62 | 1011.4 |
| 20260507141358 | 52 | 304 | 4.3 | 5.2 | 0.00 | 0.00 | 0.00 | 65 | 1011.5 |
| 20260507140854 | 52 | 184 | 3.5 | 6.1 | 0.00 | 0.00 | 0.00 | 64 | 1011.6 |
| 20260507140351 | 52 | 281 | 4.3 | 6.1 | 0.00 | 0.00 | 0.00 | 62 | 1011.8 |
| 20260507135849 | 52 | 271 | 4.3 | 5.2 | 0.00 | 0.00 | 0.00 | 65 | 1011.6 |
| 20260507135345 | 52 | 281 | 3.5 | 5.2 | 0.00 | 0.00 | 0.00 | 69 | 1011.7 |
| 20260507134843 | 51 | 302 | 2.6 | 3.5 | 0.00 | 0.00 | 0.00 | 68 | 1011.9 |
| 20260507134339 | 51 | 12 | 3.5 | 5.2 | 0.00 | 0.00 | 0.00 | 66 | 1011.9 |
| 20260507133835 | 52 | 258 | 3.5 | 5.2 | 0.00 | 0.00 | 0.00 | 68 | 1011.7 |
| 20260507133331 | 51 | 25 | 0.9 | 1.7 | 0.00 | 0.00 | 0.00 | 70 | 1011.7 |
| 20260507132830 | 51 | 99 | 0.0 | 0.9 | 0.00 | 0.00 | 0.00 | 69 | 1011.7 |
| 20260507132325 | 50 | 325 | 1.7 | 1.7 | 0.00 | 0.00 | 0.00 | 71 | 1011.8 |
| 20260507131823 | 50 | 175 | 2.6 | 3.5 | 0.00 | 0.00 | 0.00 | 71 | 1011.9 |
| 20260507131319 | 49 | 242 | 1.7 | 1.7 | 0.00 | 0.00 | 0.00 | 69 | 1011.9 |
| 20260507130816 | 49 | 317 | 3.5 | 3.5 | 0.00 | 0.00 | 0.00 | 71 | 1011.9 |
| 20260507130314 | 49 | 339 | 2.6 | 2.6 | 0.00 | 0.00 | 0.00 | 72 | 1012.0 |
| 20260507125813 | 49 | 285 | 2.6 | 2.6 | 0.00 | 0.00 | 0.00 | 72 | 1011.9 |
| 20260507125310 | 49 | 158 | 2.6 | 3.5 | 0.00 | 0.00 | 0.00 | 71 | 1011.9 |
| 20260507124807 | 48 | 193 | 2.6 | 2.6 | 0.00 | 0.00 | 0.00 | 72 | 1012.0 |
| 20260507124303 | 48 | 335 | 1.7 | 1.7 | 0.00 | 0.00 | 0.00 | 74 | 1011.8 |
| 20260507123801 | 48 | 252 | 2.6 | 2.6 | 0.00 | 0.00 | 0.00 | 73 | 1011.8 |
| 20260507123258 | 48 | 47 | 0.9 | 0.9 | 0.00 | 0.00 | 0.00 | 78 | 1012.0 |
| 20260507122754 | 47 | 59 | 0.9 | 1.7 | 0.00 | 0.00 | 0.00 | 80 | 1011.8 |
| 20260507122249 | 47 | 338 | 0.9 | 1.7 | 0.00 | 0.00 | 0.00 | 82 | 1011.9 |
| 20260507121746 | 46 | 34 | 0.0 | 0.0 | 0.00 | 0.00 | 0.00 | 86 | 1012.0 |
| 20260507121242 | 45 | 47 | 0.0 | 0.0 | 0.00 | 0.00 | 0.00 | 90 | 1012.0 |
| 20260507120738 | 44 | 25 | 0.0 | 0.0 | 0.00 | 0.00 | 0.00 | 95 | 1011.9 |
| 20260507120235 | 43 | 41 | 0.0 | 0.0 | 0.00 | 0.00 | 0.00 | 97 | 1012.0 |
| 20260507115731 | 42 | 32 | 0.0 | 0.0 | 0.00 | 0.00 | 0.00 | 99 | 1011.9 |
| 20260507115227 | 41 | 30 | 0.0 | 0.0 | 0.00 | 0.00 | 0.00 | 99 | 1012.0 |
| 20260507114723 | 40 | 42 | 0.0 | 0.0 | 0.00 | 0.00 | 0.00 | 99 | 1012.1 |
| 20260507114220 | 40 | 29 | 0.0 | 0.0 | 0.00 | 0.00 | 0.00 | 99 | 1012.2 |
| 20260507113718 | 39 | 25 | 0.0 | 0.0 | 0.00 | 0.00 | 0.00 | 99 | 1011.9 |
| 20260507113214 | 38 | 29 | 0.0 | 0.0 | 0.00 | 0.00 | 0.00 | 99 | 1012.0 |
| 20260507112712 | 36 | 25 | 0.0 | 0.0 | 0.00 | 0.00 | 0.00 | 99 | 1011.9 |
| 20260507112209 | 35 | 22 | 0.0 | 0.0 | 0.00 | 0.00 | 0.00 | 99 | 1011.9 |
| 20260507111706 | 34 | 16 | 0.0 | 0.0 | 0.00 | 0.00 | 0.00 | 99 | 1011.8 |
| 20260507111203 | 34 | 16 | 0.0 | 0.0 | 0.00 | 0.00 | 0.00 | 99 | 1011.9 |
| 20260507110659 | 34 | 15 | 0.0 | 0.0 | 0.00 | 0.00 | 0.00 | 99 | 1011.8 |
| 20260507110156 | 33 | 20 | 0.0 | 0.0 | 0.00 | 0.00 | 0.00 | 99 | 1011.7 |
| 20260507105653 | 33 | 21 | 0.0 | 0.0 | 0.00 | 0.00 | 0.00 | 99 | 1011.7 |
| 20260507105149 | 33 | 23 | 0.0 | 0.0 | 0.00 | 0.00 | 0.00 | 99 | 1011.6 |
| 20260507104646 | 33 | 22 | 0.0 | 0.0 | 0.00 | 0.00 | 0.00 | 99 | 1011.7 |
| 20260507104142 | 33 | 22 | 0.0 | 0.0 | 0.00 | 0.00 | 0.00 | 99 | 1011.7 |
| 20260507103638 | 33 | 21 | 0.0 | 0.0 | 0.00 | 0.00 | 0.00 | 99 | 1011.5 |
| 20260507103135 | 33 | 22 | 0.0 | 0.0 | 0.00 | 0.00 | 0.00 | 99 | 1011.4 |
| 20260507102632 | 33 | 21 | 0.0 | 0.0 | 0.00 | 0.00 | 0.00 | 99 | 1011.3 |
| 20260507102128 | 33 | 19 | 0.0 | 0.0 | 0.00 | 0.00 | 0.00 | 99 | 1011.5 |
| 20260507101624 | 33 | 11 | 0.0 | 0.0 | 0.00 | 0.00 | 0.00 | 99 | 1011.6 |
| 20260507101120 | 33 | 16 | 0.0 | 0.0 | 0.00 | 0.00 | 0.00 | 99 | 1011.4 |
| 20260507100618 | 33 | 20 | 0.0 | 0.0 | 0.00 | 0.00 | 0.00 | 98 | 1011.4 |
| 20260507100116 | 33 | 22 | 0.0 | 0.0 | 0.00 | 0.00 | 0.00 | 99 | 1011.4 |
| 20260507095613 | 33 | 22 | 0.0 | 0.0 | 0.00 | 0.00 | 0.00 | 98 | 1011.4 |
| 20260507095109 | 33 | 25 | 0.0 | 0.0 | 0.00 | 0.00 | 0.00 | 98 | 1011.6 |
| 20260507094606 | 33 | 24 | 0.0 | 0.0 | 0.00 | 0.00 | 0.00 | 98 | 1011.5 |
| 20260507094103 | 33 | 30 | 0.0 | 0.0 | 0.00 | 0.00 | 0.00 | 98 | 1011.2 |
| 20260507093600 | 33 | 23 | 0.0 | 0.0 | 0.00 | 0.00 | 0.00 | 98 | 1011.4 |
| 20260507093059 | 33 | 24 | 0.0 | 0.0 | 0.00 | 0.00 | 0.00 | 98 | 1011.5 |
| 20260507092555 | 33 | 24 | 0.0 | 0.0 | 0.00 | 0.00 | 0.00 | 98 | 1011.5 |
| 20260507092052 | 33 | 21 | 0.0 | 0.0 | 0.00 | 0.00 | 0.00 | 98 | 1011.5 |
| 20260507091549 | 34 | 21 | 0.0 | 0.0 | 0.00 | 0.00 | 0.00 | 98 | 1011.6 |
| 20260507091045 | 34 | 22 | 0.0 | 0.0 | 0.00 | 0.00 | 0.00 | 98 | 1011.7 |
| 20260507090540 | 34 | 25 | 0.0 | 0.0 | 0.00 | 0.00 | 0.00 | 98 | 1011.5 |
| 20260507090038 | 34 | 20 | 0.0 | 0.0 | 0.00 | 0.00 | 0.00 | 98 | 1011.5 |
| 20260507085535 | 34 | 16 | 0.0 | 0.0 | 0.00 | 0.00 | 0.00 | 97 | 1011.4 |
| 20260507085031 | 34 | 18 | 0.0 | 0.0 | 0.00 | 0.00 | 0.00 | 97 | 1011.6 |
| 20260507084528 | 35 | 18 | 0.0 | 0.0 | 0.00 | 0.00 | 0.00 | 97 | 1011.5 |
| 20260507084025 | 35 | 15 | 0.0 | 0.0 | 0.00 | 0.00 | 0.00 | 97 | 1011.4 |
| 20260507083521 | 35 | 11 | 0.0 | 0.0 | 0.00 | 0.00 | 0.00 | 97 | 1011.4 |
| 20260507083019 | 35 | 13 | 0.0 | 0.0 | 0.00 | 0.00 | 0.00 | 97 | 1011.5 |
| 20260507082514 | 35 | 15 | 0.0 | 0.0 | 0.00 | 0.00 | 0.00 | 97 | 1011.5 |
| 20260507082010 | 36 | 15 | 0.0 | 0.0 | 0.00 | 0.00 | 0.00 | 97 | 1011.6 |
| 20260507081507 | 36 | 13 | 0.0 | 0.0 | 0.00 | 0.00 | 0.00 | 97 | 1011.7 |
| 20260507081004 | 36 | 16 | 0.0 | 0.0 | 0.00 | 0.00 | 0.00 | 96 | 1011.5 |
| 20260507080500 | 36 | 16 | 0.0 | 0.0 | 0.00 | 0.00 | 0.00 | 96 | 1011.6 |
| 20260507075955 | 37 | 15 | 0.0 | 0.0 | 0.00 | 0.00 | 0.00 | 96 | 1011.6 |
| 20260507075452 | 36 | 15 | 0.0 | 0.0 | 0.00 | 0.00 | 0.00 | 96 | 1011.7 |
| 20260507074948 | 37 | 12 | 0.0 | 0.0 | 0.00 | 0.00 | 0.00 | 96 | 1011.7 |
| 20260507074445 | 37 | 8 | 0.0 | 0.0 | 0.00 | 0.00 | 0.00 | 96 | 1011.5 |
| 20260507073944 | 37 | 16 | 0.0 | 0.0 | 0.00 | 0.00 | 0.00 | 95 | 1011.5 |
| 20260507073439 | 38 | 14 | 0.0 | 0.0 | 0.00 | 0.00 | 0.00 | 95 | 1011.5 |
| 20260507072936 | 37 | 17 | 0.0 | 0.0 | 0.00 | 0.00 | 0.00 | 95 | 1011.7 |
| 20260507072434 | 38 | 16 | 0.0 | 0.0 | 0.00 | 0.00 | 0.00 | 95 | 1011.7 |
| 20260507071931 | 38 | 16 | 0.0 | 0.0 | 0.00 | 0.00 | 0.00 | 94 | 1011.8 |
| 20260507071428 | 38 | 15 | 0.0 | 0.0 | 0.00 | 0.00 | 0.00 | 94 | 1011.8 |
| 20260507070924 | 38 | 25 | 0.0 | 0.0 | 0.00 | 0.00 | 0.00 | 93 | 1011.6 |
| 20260507070422 | 38 | 21 | 0.0 | 0.0 | 0.00 | 0.00 | 0.00 | 93 | 1011.8 |
| 20260507065918 | 39 | 16 | 0.0 | 0.0 | 0.00 | 0.00 | 0.00 | 92 | 1011.7 |
| 20260507065415 | 39 | 10 | 0.0 | 0.0 | 0.00 | 0.00 | 0.00 | 92 | 1011.8 |
| 20260507064913 | 39 | 5 | 0.0 | 0.0 | 0.00 | 0.00 | 0.00 | 91 | 1011.8 |
| 20260507064411 | 40 | 15 | 0.0 | 0.0 | 0.00 | 0.00 | 0.00 | 89 | 1011.7 |
| 20260507063908 | 40 | 7 | 0.0 | 0.0 | 0.00 | 0.00 | 0.00 | 88 | 1011.6 |
| 20260507063405 | 40 | 18 | 0.0 | 0.0 | 0.00 | 0.00 | 0.00 | 88 | 1011.7 |
| 20260507062902 | 41 | 12 | 0.0 | 0.0 | 0.00 | 0.00 | 0.00 | 87 | 1011.6 |
| 20260507062359 | 41 | 10 | 0.0 | 0.0 | 0.00 | 0.00 | 0.00 | 86 | 1011.9 |
| 20260507061856 | 41 | 13 | 0.0 | 0.0 | 0.00 | 0.00 | 0.00 | 85 | 1011.7 |
| 20260507061355 | 41 | 11 | 0.0 | 0.0 | 0.00 | 0.00 | 0.00 | 84 | 1011.9 |
| 20260507060853 | 42 | 12 | 0.0 | 0.0 | 0.00 | 0.00 | 0.00 | 82 | 1011.9 |
| 20260507060349 | 42 | 13 | 0.0 | 0.0 | 0.00 | 0.00 | 0.00 | 82 | 1011.9 |
| 20260507055846 | 42 | 12 | 0.0 | 0.0 | 0.00 | 0.00 | 0.00 | 82 | 1011.8 |
| 20260507055341 | 43 | 15 | 0.0 | 0.0 | 0.00 | 0.00 | 0.00 | 82 | 1011.9 |
| 20260507054838 | 43 | 11 | 0.0 | 0.0 | 0.00 | 0.00 | 0.00 | 82 | 1012.0 |
| 20260507054334 | 43 | 16 | 0.0 | 0.0 | 0.00 | 0.00 | 0.00 | 82 | 1012.2 |
| 20260507053831 | 44 | 20 | 0.0 | 0.0 | 0.00 | 0.00 | 0.00 | 81 | 1012.1 |
| 20260507053329 | 44 | 20 | 0.0 | 0.0 | 0.00 | 0.00 | 0.00 | 80 | 1012.1 |
| 20260507052828 | 44 | 15 | 0.0 | 0.0 | 0.00 | 0.00 | 0.00 | 80 | 1012.3 |
| 20260507052324 | 44 | 15 | 0.0 | 0.0 | 0.00 | 0.00 | 0.00 | 79 | 1012.5 |
| 20260507051822 | 44 | 18 | 0.0 | 0.0 | 0.00 | 0.00 | 0.00 | 78 | 1012.4 |
| 20260507051319 | 44 | 21 | 0.0 | 0.0 | 0.00 | 0.00 | 0.00 | 79 | 1012.5 |
| 20260507050816 | 44 | 19 | 0.0 | 0.0 | 0.00 | 0.00 | 0.00 | 77 | 1012.5 |
| 20260507050312 | 45 | 17 | 0.0 | 0.0 | 0.00 | 0.00 | 0.00 | 76 | 1012.6 |
| 20260507045809 | 45 | 8 | 0.0 | 0.0 | 0.00 | 0.00 | 0.00 | 76 | 1012.6 |
| 20260507045307 | 45 | 9 | 0.0 | 0.0 | 0.00 | 0.00 | 0.00 | 76 | 1012.6 |
| 20260507044803 | 45 | 12 | 0.0 | 0.0 | 0.00 | 0.00 | 0.00 | 76 | 1012.6 |
| 20260507044259 | 45 | 13 | 0.0 | 0.0 | 0.00 | 0.00 | 0.00 | 76 | 1012.5 |
| 20260507043755 | 45 | 14 | 0.0 | 0.0 | 0.00 | 0.00 | 0.00 | 76 | 1012.7 |
| 20260507043252 | 45 | 6 | 0.9 | 0.9 | 0.00 | 0.00 | 0.00 | 75 | 1012.6 |
| 20260507042748 | 45 | 9 | 0.0 | 0.0 | 0.00 | 0.00 | 0.00 | 75 | 1012.5 |
| 20260507042243 | 45 | 15 | 0.0 | 0.0 | 0.00 | 0.00 | 0.00 | 74 | 1012.6 |
| 20260507041742 | 45 | 4 | 0.0 | 0.0 | 0.00 | 0.00 | 0.00 | 75 | 1012.4 |
| 20260507041238 | 45 | 5 | 1.7 | 1.7 | 0.00 | 0.00 | 0.00 | 74 | 1012.4 |
| 20260507040735 | 45 | 331 | 0.9 | 0.9 | 0.00 | 0.00 | 0.00 | 74 | 1012.4 |
| 20260507040231 | 45 | 1 | 0.9 | 0.9 | 0.00 | 0.00 | 0.00 | 75 | 1012.3 |
| 20260507035727 | 46 | 14 | 0.9 | 0.9 | 0.00 | 0.56 | 0.56 | 76 | 1012.4 |
| 20260507035222 | 46 | 6 | 0.0 | 0.0 | 0.00 | 0.56 | 0.56 | 74 | 1012.5 |
| 20260507034720 | 46 | 3 | 0.0 | 0.0 | 0.00 | 0.56 | 0.56 | 73 | 1012.3 |
| 20260507034217 | 46 | 11 | 0.0 | 0.0 | 0.00 | 0.56 | 0.56 | 73 | 1012.2 |
| 20260507033716 | 46 | 14 | 0.0 | 0.0 | 0.00 | 0.56 | 0.56 | 73 | 1012.1 |
| 20260507033213 | 46 | 8 | 0.0 | 0.9 | 0.00 | 0.56 | 0.56 | 73 | 1012.3 |
| 20260507032710 | 45 | 2 | 0.9 | 0.9 | 0.00 | 0.56 | 0.56 | 74 | 1012.2 |
| 20260507032206 | 46 | 18 | 0.0 | 0.0 | 0.00 | 0.56 | 0.56 | 79 | 1012.0 |
| 20260507031703 | 46 | 7 | 0.0 | 0.0 | 0.00 | 0.56 | 0.56 | 77 | 1012.1 |
| 20260507031159 | 46 | 11 | 0.0 | 0.9 | 0.00 | 0.56 | 0.56 | 80 | 1012.2 |
| 20260507030656 | 45 | 12 | 0.0 | 0.0 | 0.00 | 0.56 | 0.56 | 79 | 1012.3 |
| 20260507030154 | 46 | 347 | 0.0 | 0.0 | 0.00 | 0.56 | 0.56 | 79 | 1012.1 |
| 20260507025651 | 46 | 359 | 0.9 | 0.9 | 0.00 | 0.56 | 0.56 | 78 | 1012.1 |
| 20260507025148 | 46 | 348 | 0.0 | 0.0 | 0.00 | 0.56 | 0.56 | 80 | 1011.9 |
| 20260507024646 | 46 | 353 | 0.0 | 0.0 | 0.00 | 0.56 | 0.56 | 77 | 1011.8 |
| 20260507024143 | 46 | 12 | 0.0 | 0.0 | 0.00 | 0.56 | 0.56 | 79 | 1011.7 |
| 20260507023638 | 46 | 12 | 0.0 | 0.0 | 0.00 | 0.56 | 0.56 | 76 | 1012.0 |
| 20260507023136 | 46 | 10 | 0.0 | 0.0 | 0.00 | 0.56 | 0.56 | 73 | 1011.9 |
| 20260507022633 | 46 | 15 | 0.0 | 0.0 | 0.00 | 0.56 | 0.56 | 76 | 1011.7 |
| 20260507022128 | 46 | 7 | 0.0 | 0.0 | 0.00 | 0.56 | 0.56 | 77 | 1011.9 |
| 20260507021625 | 47 | 14 | 0.0 | 0.0 | 0.00 | 0.56 | 0.56 | 73 | 1011.9 |
| 20260507021120 | 47 | 14 | 0.0 | 0.0 | 0.00 | 0.56 | 0.56 | 70 | 1011.5 |
| 20260507020619 | 47 | 14 | 0.0 | 0.0 | 0.00 | 0.56 | 0.56 | 72 | 1011.6 |
| 20260507020114 | 47 | 5 | 0.0 | 0.0 | 0.00 | 0.56 | 0.56 | 72 | 1011.7 |
| 20260507015613 | 47 | 11 | 0.0 | 0.0 | 0.00 | 0.56 | 0.56 | 71 | 1011.5 |
| 20260507015110 | 47 | 14 | 0.0 | 0.0 | 0.00 | 0.56 | 0.56 | 70 | 1011.6 |
| 20260507014607 | 48 | 10 | 0.0 | 0.0 | 0.00 | 0.56 | 0.56 | 69 | 1011.3 |
| 20260507014102 | 48 | 5 | 0.9 | 0.9 | 0.00 | 0.56 | 0.56 | 67 | 1011.4 |
| 20260507013559 | 48 | 340 | 0.9 | 0.9 | 0.00 | 0.56 | 0.56 | 68 | 1011.3 |
| 20260507013057 | 48 | 14 | 0.9 | 0.9 | 0.00 | 0.56 | 0.56 | 67 | 1011.3 |
| 20260507012554 | 48 | 32 | 0.9 | 0.9 | 0.00 | 0.56 | 0.56 | 67 | 1011.2 |
| 20260507012049 | 48 | 16 | 0.0 | 0.0 | 0.00 | 0.56 | 0.56 | 68 | 1011.5 |
| 20260507011548 | 48 | 17 | 0.0 | 0.0 | 0.00 | 0.56 | 0.56 | 68 | 1011.3 |
| 20260507011043 | 48 | 16 | 0.9 | 0.9 | 0.00 | 0.56 | 0.56 | 67 | 1011.5 |
| 20260507010538 | 49 | 16 | 0.0 | 0.0 | 0.00 | 0.56 | 0.56 | 66 | 1011.5 |
| 20260507010035 | 49 | 318 | 0.0 | 0.0 | 0.00 | 0.56 | 0.56 | 65 | 1011.5 |
| 20260507005532 | 49 | 332 | 1.7 | 2.6 | 0.00 | 0.56 | 0.56 | 65 | 1011.7 |
| 20260507005028 | 49 | 18 | 0.0 | 0.0 | 0.00 | 0.56 | 0.56 | 66 | 1011.8 |
| 20260507004526 | 49 | 335 | 1.7 | 2.6 | 0.00 | 0.56 | 0.56 | 65 | 1011.6 |
| 20260507004023 | 49 | 336 | 1.7 | 1.7 | 0.00 | 0.56 | 0.56 | 64 | 1011.7 |
| 20260507003518 | 50 | 322 | 1.7 | 1.7 | 0.00 | 0.56 | 0.56 | 64 | 1011.6 |
| 20260507003014 | 50 | 10 | 0.0 | 0.0 | 0.00 | 0.56 | 0.56 | 65 | 1011.6 |
| 20260507002510 | 50 | 28 | 0.9 | 0.9 | 0.00 | 0.56 | 0.56 | 66 | 1011.1 |
| 20260507002006 | 50 | 347 | 2.6 | 2.6 | 0.00 | 0.56 | 0.56 | 64 | 1011.6 |
| 20260507001503 | 50 | 322 | 0.0 | 0.9 | 0.00 | 0.56 | 0.56 | 65 | 1011.5 |
| 20260507001001 | 50 | 14 | 0.0 | 0.0 | 0.00 | 0.56 | 0.56 | 66 | 1011.4 |
| 20260507000456 | 50 | 351 | 0.9 | 0.9 | 0.00 | 0.56 | 0.56 | 65 | 1011.3 |
| 20260506235952 | 50 | 45 | 0.0 | 0.0 | 0.00 | 0.56 | 0.56 | 65 | 1011.4 |
| 20260506235450 | 50 | 298 | 0.9 | 1.7 | 0.00 | 0.56 | 0.56 | 64 | 1011.7 |
| 20260506234945 | 50 | 321 | 0.9 | 1.7 | 0.00 | 0.56 | 0.56 | 64 | 1011.4 |
| 20260506234443 | 50 | 5 | 1.7 | 1.7 | 0.00 | 0.56 | 0.56 | 64 | 1011.5 |
| 20260506233940 | 51 | 274 | 3.5 | 3.5 | 0.00 | 0.56 | 0.56 | 65 | 1011.1 |
| 20260506233437 | 51 | 305 | 1.7 | 1.7 | 0.00 | 0.56 | 0.56 | 65 | 1011.0 |
| 20260506232933 | 51 | 320 | 1.7 | 2.6 | 0.00 | 0.56 | 0.56 | 65 | 1011.1 |
| 20260506232430 | 51 | 304 | 1.7 | 2.6 | 0.00 | 0.56 | 0.56 | 63 | 1011.0 |
| 20260506231925 | 51 | 345 | 1.7 | 1.7 | 0.00 | 0.56 | 0.56 | 66 | 1011.1 |